KBKT/BKT METAR and TAF weather

Enter ICAO airport designator
Station Type Date Time Source
KBKT METAR 2019/12/08 19:35 UTC NOAA

KBKT 081935Z AUTO 00000KT 7SM BKN044 OVC080 09/00 A3038 RMK AO1 T00940000


Station Type Date Time Source
KBKT Decoded METAR 2019/12/08 19:35 UTC NOAA

Ft. Pickett / Blackstone, VA, United States (KBKT) 37-05N 077-57W
Dec 08, 2019 - 02:35 PM EST / 2019.12.08 1935 UTC
Wind: Calm:0
Visibility: 7 mile(s):0
Sky conditions: overcast
Temperature: 48.9 F (9.4 C)
Dew Point: 32.0 F (0.0 C)
Relative Humidity: 51%
Pressure (altimeter): 30.38 in. Hg (1028 hPa)
ob: KBKT 081935Z AUTO 00000KT 7SM BKN044 OVC080 09/00 A3038 RMK AO1 T00940000
cycle: 19

Station Type Date Time Source
KBKT TAF UTC NOAA

Error!

Example: see airport list